Time;durP1;ratioP1;P1;durP2;ratioP2;P2;SDS_P1;SDS_P2;PMS_P1;PMS_P2;Temp;Humidity;BMP_temperature;BMP_pressure;BME280_temperature;BME280_humidity;BME280_pressure;Samples;Min_cycle;Max_cycle;Signal;HPM_P1;HPM_P2
2022/04/28 00:00:36;;;;;;;;;;;;;;;21.43;66.02;96860.17;592251;237;66438;-69
2022/04/28 00:03:04;;;;;;;;;;;;;;;21.43;66.55;96862.84;592220;239;65268;-69
2022/04/28 00:05:31;;;;;;;;;;;;;;;21.43;67.34;96863.64;592242;239;68647;-69
2022/04/28 00:07:59;;;;;;;;;;;;;;;21.42;66.78;96862.05;592271;239;66283;-69
2022/04/28 00:10:26;;;;;;;;;;;;;;;21.42;66.56;96870.07;592248;239;65138;-69
2022/04/28 00:12:54;;;;;;;;;;;;;;;21.42;66.54;96878.09;592250;239;69676;-69
2022/04/28 00:15:21;;;;;;;;;;;;;;;21.41;66.76;96887.17;592218;239;69027;-69
2022/04/28 00:17:49;;;;;;;;;;;;;;;21.41;66.93;96897.86;592230;239;65438;-70
2022/04/28 00:20:16;;;;;;;;;;;;;;;21.41;66.44;96892.52;592263;239;68833;-70
2022/04/28 00:22:44;;;;;;;;;;;;;;;21.41;66.25;96913.90;592285;239;68522;-71
2022/04/28 00:25:11;;;;;;;;;;;;;;;21.41;66.86;96903.20;592223;239;63243;-70
2022/04/28 00:27:39;;;;;;;;;;;;;;;21.41;67.14;96915.78;592248;239;68643;-70
2022/04/28 00:30:07;;;;;;;;;;;;;;;21.40;67.36;96906.97;592237;239;68573;-70
2022/04/28 00:32:35;;;;;;;;;;;;;;;21.40;67.19;96904.30;592063;239;65546;-70
2022/04/28 00:35:03;;;;;;;;;;;;;;;21.41;67.17;96913.90;590339;240;68414;-71
2022/04/28 00:37:31;;;;;;;;;;;;;;;21.40;67.57;96920.34;590285;240;69738;-70
2022/04/28 00:39:58;;;;;;;;;;;;;;;21.40;66.88;96923.01;590261;240;63105;-70
2022/04/28 00:42:26;;;;;;;;;;;;;;;21.40;66.86;96935.58;590318;240;66681;-70
2022/04/28 00:44:54;;;;;;;;;;;;;;;21.40;66.87;96938.25;590260;240;66497;-70
2022/04/28 00:50:38;;;;;;;;;;;;;;;21.40;66.53;96936.37;590326;240;65237;-70
2022/04/28 00:52:36;;;;;;;;;;;;;;;21.40;66.88;96948.95;590298;240;68696;-70
2022/04/28 00:55:04;;;;;;;;;;;;;;;21.38;66.87;96949.20;590301;240;65368;-70
2022/04/28 00:57:33;;;;;;;;;;;;;;;21.38;67.30;96957.23;590297;240;69746;-70
2022/04/28 01:00:01;;;;;;;;;;;;;;;21.38;67.85;96951.88;590307;240;69058;-70
2022/04/28 01:02:29;;;;;;;;;;;;;;;21.39;67.00;96964.19;590287;240;63171;-70
2022/04/28 01:04:57;;;;;;;;;;;;;;;21.38;67.74;96973.27;590283;240;66536;-70
2022/04/28 01:07:25;;;;;;;;;;;;;;;21.39;67.50;96969.54;590280;240;66501;-70
2022/04/28 01:09:52;;;;;;;;;;;;;;;21.37;66.84;96971.68;590316;240;65345;-70
2022/04/28 01:12:21;;;;;;;;;;;;;;;21.38;67.86;96969.80;590316;240;66457;-70
2022/04/28 01:14:50;;;;;;;;;;;;;;;21.38;67.66;96972.47;590351;240;66364;-70
2022/04/28 01:17:20;;;;;;;;;;;;;;;21.38;67.25;96983.16;590314;240;65560;-70
2022/04/28 01:19:49;;;;;;;;;;;;;;;21.37;67.11;96979.70;589987;240;46699;-70
2022/04/28 01:22:17;;;;;;;;;;;;;;;21.38;67.97;96988.52;590314;240;68331;-70
2022/04/28 01:24:44;;;;;;;;;;;;;;;21.36;67.14;96996.80;590296;240;65244;-70
2022/04/28 01:27:13;;;;;;;;;;;;;;;21.37;66.72;97006.43;590279;240;66464;-70
2022/04/28 01:29:42;;;;;;;;;;;;;;;21.37;67.49;97000.26;590322;240;67049;-70
2022/04/28 01:32:10;;;;;;;;;;;;;;;21.36;67.58;97002.14;590221;240;65487;-70
2022/04/28 01:34:39;;;;;;;;;;;;;;;21.37;66.97;97003.76;591983;239;45030;-70
2022/04/28 01:37:07;;;;;;;;;;;;;;;21.36;68.32;97007.48;592230;239;66089;-70
2022/04/28 01:39:34;;;;;;;;;;;;;;;21.36;67.70;97009.33;592269;239;65779;-70
2022/04/28 01:42:02;;;;;;;;;;;;;;;21.35;67.21;97016.56;592203;239;69226;-70
2022/04/28 01:44:32;;;;;;;;;;;;;;;21.36;67.20;97015.51;592204;239;66428;-70
2022/04/28 01:47:00;;;;;;;;;;;;;;;21.36;67.25;97018.18;592241;239;63075;-70
2022/04/28 01:49:29;;;;;;;;;;;;;;;21.35;67.06;97019.23;591315;239;49256;-70
2022/04/28 01:55:05;;;;;;;;;;;;;;;21.35;67.11;97021.11;570981;247;46355;-70
2022/04/28 01:57:39;;;;;;;;;;;;;;;21.34;67.01;97025.66;570868;248;52490;-70
2022/04/28 02:00:10;;;;;;;;;;;;;;;21.35;67.46;97037.15;578635;239;48386;-70
2022/04/28 02:02:45;;;;;;;;;;;;;;;21.34;67.19;97028.34;592225;239;42731;-71
2022/04/28 02:05:13;;;;;;;;;;;;;;;21.33;67.98;97037.41;592217;239;68696;-70
2022/04/28 02:07:41;;;;;;;;;;;;;;;21.33;67.50;97033.94;592237;239;65971;-70
2022/04/28 02:10:09;;;;;;;;;;;;;;;21.34;67.02;97040.91;592261;239;65363;-70
2022/04/28 02:12:37;;;;;;;;;;;;;;;21.33;67.81;97037.41;592282;239;69113;-70
2022/04/28 02:15:23;;;;;;;;;;;;;;;21.33;68.40;97034.73;592334;239;39175;-70
2022/04/28 02:18:01;;;;;;;;;;;;;;;21.33;67.35;97034.73;570970;247;46187;-70
2022/04/28 02:20:30;;;;;;;;;;;;;;;21.33;67.72;97033.94;592225;239;68766;-70
2022/04/28 02:22:58;;;;;;;;;;;;;;;21.33;68.22;97034.73;592229;239;68341;-70
2022/04/28 02:25:26;;;;;;;;;;;;;;;21.32;68.21;97043.84;592289;239;65995;-69
2022/04/28 02:27:55;;;;;;;;;;;;;;;21.32;68.09;97043.05;592196;239;68439;-69
2022/04/28 02:30:22;;;;;;;;;;;;;;;21.32;67.34;97041.16;592264;239;66302;-69
2022/04/28 02:35:54;;;;;;;;;;;;;;;21.32;68.00;97049.19;592298;239;40135;-71
2022/04/28 02:38:21;;;;;;;;;;;;;;;21.32;67.75;97051.86;592230;239;66243;-70
2022/04/28 02:40:49;;;;;;;;;;;;;;;21.31;67.95;97047.59;592264;239;65842;-70
2022/04/28 02:43:18;;;;;;;;;;;;;;;21.31;67.25;97046.77;592217;239;68661;-70
2022/04/28 02:45:49;;;;;;;;;;;;;;;21.31;67.60;97052.94;592198;239;47779;-70
2022/04/28 02:48:18;;;;;;;;;;;;;;;21.31;67.85;97052.12;592220;239;65222;-70
2022/04/28 02:50:46;;;;;;;;;;;;;;;21.30;67.60;97056.67;592213;239;66392;-70
2022/04/28 02:53:13;;;;;;;;;;;;;;;21.31;68.09;97054.79;592219;237;66392;-70
2022/04/28 02:55:43;;;;;;;;;;;;;;;21.31;67.62;97060.14;592326;239;44243;-70
2022/04/28 02:58:12;;;;;;;;;;;;;;;21.31;67.73;97057.47;592181;239;45219;-70
2022/04/28 03:00:40;;;;;;;;;;;;;;;21.31;67.76;97060.14;592231;239;68575;-70
2022/04/28 03:03:08;;;;;;;;;;;;;;;21.29;67.52;97058.55;592239;237;65515;-70
2022/04/28 03:10:46;;;;;;;;;;;;;;;21.30;67.49;97056.67;592210;239;66142;-70
2022/04/28 03:10:51;;;;;;;;;;;;;;;21.30;67.62;97067.36;592259;239;62677;-72
2022/04/28 03:13:22;;;;;;;;;;;;;;;21.31;67.90;97065.48;592188;239;49068;-72
2022/04/28 03:15:51;;;;;;;;;;;;;;;21.29;67.89;97066.56;592223;239;47417;-70
2022/04/28 03:18:21;;;;;;;;;;;;;;;21.29;67.51;97065.77;592236;239;44676;-70
2022/04/28 03:20:48;;;;;;;;;;;;;;;21.29;67.55;97068.44;592211;239;66417;-70
2022/04/28 03:23:16;;;;;;;;;;;;;;;21.28;67.96;97070.32;592271;239;67394;-70
2022/04/28 03:25:44;;;;;;;;;;;;;;;21.29;67.86;97077.25;592200;237;65886;-70
2022/04/28 03:28:12;;;;;;;;;;;;;;;21.29;67.73;97076.46;592231;239;69246;-70
2022/04/28 03:30:40;;;;;;;;;;;;;;;21.27;68.33;97076.72;592230;239;66422;-70
2022/04/28 03:33:13;;;;;;;;;;;;;;;21.28;67.81;97083.69;591068;239;46661;-70
2022/04/28 03:35:40;;;;;;;;;;;;;;;21.28;67.29;97086.36;590272;240;68651;-70
2022/04/28 03:38:13;;;;;;;;;;;;;;;21.28;67.92;97093.58;590364;240;68315;-70
2022/04/28 03:40:43;;;;;;;;;;;;;;;21.28;68.23;97096.25;590294;240;63064;-70
2022/04/28 03:43:11;;;;;;;;;;;;;;;21.28;67.97;97096.25;590278;240;69304;-70
2022/04/28 03:45:39;;;;;;;;;;;;;;;21.27;67.89;97103.45;590315;240;66540;-70
2022/04/28 03:48:09;;;;;;;;;;;;;;;21.27;67.51;97102.66;590189;240;44410;-70
2022/04/28 03:50:38;;;;;;;;;;;;;;;21.27;68.09;97108.80;590325;240;66457;-70
2022/04/28 03:53:06;;;;;;;;;;;;;;;21.26;67.41;97106.41;590322;240;68273;-70
2022/04/28 03:55:33;;;;;;;;;;;;;;;21.27;67.52;97108.80;590272;240;65222;-70
2022/04/28 03:58:01;;;;;;;;;;;;;;;21.26;68.38;97117.09;590309;240;68921;-71
2022/04/28 04:00:30;;;;;;;;;;;;;;;21.26;67.80;97120.56;590281;240;66529;-71
2022/04/28 04:02:59;;;;;;;;;;;;;;;21.27;67.86;97116.02;590239;240;46643;-69
2022/04/28 04:05:27;;;;;;;;;;;;;;;21.26;67.38;97125.12;590308;240;69693;-69
2022/04/28 04:07:55;;;;;;;;;;;;;;;21.27;67.72;97121.36;590255;238;68519;-69
2022/04/28 04:10:24;;;;;;;;;;;;;;;21.26;67.80;97114.42;590155;240;42623;-70
2022/04/28 04:12:53;;;;;;;;;;;;;;;21.26;67.92;97122.45;590216;240;45987;-70
2022/04/28 04:15:23;;;;;;;;;;;;;;;21.26;67.83;97130.47;590349;240;50374;-71
2022/04/28 04:17:55;;;;;;;;;;;;;;;21.25;67.62;97121.66;590435;240;46353;-70
2022/04/28 04:20:25;;;;;;;;;;;;;;;21.24;67.43;97133.39;590296;240;45482;-70
2022/04/28 04:22:55;;;;;;;;;;;;;;;21.25;68.27;97118.16;590281;240;66741;-70
2022/04/28 04:25:26;;;;;;;;;;;;;;;21.25;68.28;97120.83;590359;239;40560;-69
2022/04/28 04:27:55;;;;;;;;;;;;;;;21.25;68.00;97134.19;590300;240;46376;-70
2022/04/28 04:33:27;;;;;;;;;;;;;;;21.25;68.33;97123.50;590237;239;43129;-71
2022/04/28 04:35:55;;;;;;;;;;;;;;;21.24;67.57;97127.25;590334;238;69231;-71
2022/04/28 04:38:23;;;;;;;;;;;;;;;21.24;67.91;97129.92;590284;240;69020;-71
2022/04/28 04:40:50;;;;;;;;;;;;;;;21.24;67.67;97137.94;590287;240;62851;-71
2022/04/28 04:43:18;;;;;;;;;;;;;;;21.23;67.56;97136.35;590278;240;68654;-69
2022/04/28 04:45:46;;;;;;;;;;;;;;;21.24;68.14;97135.27;590256;238;68683;-69
2022/04/28 04:48:15;;;;;;;;;;;;;;;21.24;67.60;97143.29;589794;238;42317;-70
2022/04/28 04:50:44;;;;;;;;;;;;;;;21.24;67.81;97143.29;589902;240;50031;-70
2022/04/28 04:53:26;;;;;;;;;;;;;;;21.24;67.91;97145.96;590177;240;49855;-71
2022/04/28 04:55:53;;;;;;;;;;;;;;;21.23;68.30;97142.49;590082;240;65302;-71
2022/04/28 04:58:21;;;;;;;;;;;;;;;21.23;68.32;97137.15;590185;240;66453;-71
2022/04/28 05:00:51;;;;;;;;;;;;;;;21.21;67.13;97133.14;590153;240;66449;-70
2022/04/28 05:03:28;;;;;;;;;;;;;;;21.27;64.84;97151.56;590239;240;45802;-70
2022/04/28 05:06:06;;;;;;;;;;;;;;;21.28;67.51;97153.19;590013;240;45060;-70
2022/04/28 05:08:38;;;;;;;;;;;;;;;21.27;68.53;97154.23;590325;240;47078;-69
2022/04/28 05:11:07;;;;;;;;;;;;;;;21.26;67.65;97146.50;590325;240;44150;-69
2022/04/28 05:13:37;;;;;;;;;;;;;;;21.26;67.92;97157.20;590296;240;47520;-70
2022/04/28 05:16:06;;;;;;;;;;;;;;;21.25;69.33;97156.39;590277;240;46348;-70
2022/04/28 05:18:35;;;;;;;;;;;;;;;21.26;68.74;97167.88;590069;238;42873;-71
2022/04/28 05:21:04;;;;;;;;;;;;;;;21.25;68.24;97163.59;589685;238;50628;-69
2022/04/28 05:23:50;;;;;;;;;;;;;;;21.25;68.87;97167.09;590395;240;43622;-69
2022/04/28 05:26:22;;;;;;;;;;;;;;;21.25;68.97;97176.95;589528;238;42752;-69
2022/04/28 05:29:01;;;;;;;;;;;;;;;21.25;69.64;97169.77;589494;240;48994;-69
2022/04/28 05:31:46;;;;;;;;;;;;;;;21.25;68.90;97177.78;590395;240;43155;-69
2022/04/28 05:34:19;;;;;;;;;;;;;;;21.24;69.51;97180.70;588411;239;46335;-70
2022/04/28 05:36:55;;;;;;;;;;;;;;;21.24;70.15;97186.05;590263;240;46698;-69
2022/04/28 05:39:22;;;;;;;;;;;;;;;21.24;70.20;97180.70;590298;240;66457;-69
2022/04/28 05:41:50;;;;;;;;;;;;;;;21.23;68.70;97182.59;590046;238;63783;-70
2022/04/28 05:47:03;;;;;;;;;;;;;;;21.24;70.11;97186.85;581873;243;67155;-70
2022/04/28 05:49:32;;;;;;;;;;;;;;;21.24;69.94;97191.40;581336;243;65892;-70
2022/04/28 05:52:01;;;;;;;;;;;;;;;21.24;68.95;97196.75;582345;243;69574;-70
2022/04/28 05:54:28;;;;;;;;;;;;;;;21.24;70.46;97199.42;582345;243;66729;-70
2022/04/28 05:56:56;;;;;;;;;;;;;;;21.24;70.56;97210.11;582314;243;62918;-71
2022/04/28 05:59:23;;;;;;;;;;;;;;;21.23;69.83;97211.98;582375;243;68692;-70
2022/04/28 06:01:53;;;;;;;;;;;;;;;21.23;70.28;97209.31;577886;243;49876;-69
2022/04/28 06:04:22;;;;;;;;;;;;;;;21.23;70.14;97220.00;582333;243;42180;-69
2022/04/28 06:06:50;;;;;;;;;;;;;;;21.24;70.14;97223.47;582219;241;69117;-69
2022/04/28 06:09:19;;;;;;;;;;;;;;;21.21;68.12;97224.81;582012;241;45314;-69
2022/04/28 06:11:48;;;;;;;;;;;;;;;21.24;68.82;97228.82;579993;243;66778;-70
2022/04/28 06:14:15;;;;;;;;;;;;;;;21.23;70.07;97233.37;583862;239;68684;-69
2022/04/28 06:16:48;;;;;;;;;;;;;;;21.22;70.28;97231.74;588857;238;48465;-69
2022/04/28 06:19:19;;;;;;;;;;;;;;;21.24;70.13;97239.51;588792;238;47078;-69
2022/04/28 06:22:04;;;;;;;;;;;;;;;21.24;70.86;97239.51;588949;241;43502;-69
2022/04/28 06:24:33;;;;;;;;;;;;;;;21.25;70.43;97252.62;588845;238;46069;-69
2022/04/28 06:27:01;;;;;;;;;;;;;;;21.25;70.69;97246.45;588847;241;65996;-69
2022/04/28 06:29:28;;;;;;;;;;;;;;;21.25;70.81;97251.80;588785;239;66130;-69
2022/04/28 06:32:01;;;;;;;;;;;;;;;21.25;69.56;97257.14;588872;238;50210;-72
2022/04/28 06:34:49;;;;;;;;;;;;;;;21.26;70.58;97264.11;593296;237;38892;-70
2022/04/28 06:37:17;;;;;;;;;;;;;;;21.25;69.84;97263.31;591717;237;68650;-69
2022/04/28 06:39:46;;;;;;;;;;;;;;;21.25;70.44;97274.00;591629;239;49578;-68
2022/04/28 06:42:14;;;;;;;;;;;;;;;21.27;70.01;97273.72;591784;239;66063;-70
2022/04/28 06:44:47;;;;;;;;;;;;;;;21.27;69.27;97279.06;588266;237;48199;-69
2022/04/28 06:47:23;;;;;;;;;;;;;;;21.27;69.65;97276.39;583098;239;49789;-69
2022/04/28 06:50:09;;;;;;;;;;;;;;;21.28;71.49;97280.69;591962;239;38976;-69
2022/04/28 06:52:41;;;;;;;;;;;;;;;21.26;70.75;97277.47;587157;239;47919;-71
2022/04/28 06:55:11;;;;;;;;;;;;;;;21.27;71.19;97285.21;591699;239;47069;-70
2022/04/28 06:57:39;;;;;;;;;;;;;;;21.25;69.56;97284.70;591702;239;63241;-71
2022/04/28 07:00:17;;;;;;;;;;;;;;;21.27;69.61;97282.54;591335;239;47664;-70
2022/04/28 07:02:46;;;;;;;;;;;;;;;21.27;69.56;97293.23;591666;239;47112;-71
2022/04/28 07:05:15;;;;;;;;;;;;;;;21.27;68.36;97287.09;591793;239;66005;-71
2022/04/28 07:07:42;;;;;;;;;;;;;;;21.28;67.64;97289.51;591326;239;68755;-71
2022/04/28 07:10:10;;;;;;;;;;;;;;;21.29;69.47;97298.33;591776;239;66180;-71
2022/04/28 07:12:43;;;;;;;;;;;;;;;21.29;68.37;97290.30;591714;239;44781;-71
2022/04/28 07:15:28;;;;;;;;;;;;;;;21.29;68.67;97292.98;591891;239;39507;-71
2022/04/28 07:18:13;;;;;;;;;;;;;;;21.30;69.38;97302.59;590985;239;46995;-71
2022/04/28 07:20:41;;;;;;;;;;;;;;;21.30;68.53;97307.94;591786;239;65323;-71
2022/04/28 07:23:11;;;;;;;;;;;;;;;21.29;69.18;97299.12;591751;239;66551;-70
2022/04/28 07:25:39;;;;;;;;;;;;;;;21.29;71.31;97298.33;591779;239;68557;-71
2022/04/28 07:28:07;;;;;;;;;;;;;;;21.27;70.85;97303.92;591738;239;64956;-70
2022/04/28 07:30:37;;;;;;;;;;;;;;;21.30;71.16;97307.94;587235;239;49937;-73
2022/04/28 07:33:06;;;;;;;;;;;;;;;21.29;69.97;97306.34;589798;239;68395;-74
2022/04/28 07:35:36;;;;;;;;;;;;;;;21.29;69.28;97317.03;584932;242;45276;-72
2022/04/28 07:38:11;;;;;;;;;;;;;;;21.29;69.13;97317.03;585054;242;48681;-72
2022/04/28 07:40:55;;;;;;;;;;;;;;;21.31;70.41;97319.42;578490;242;49233;-72
2022/04/28 07:43:25;;;;;;;;;;;;;;;21.30;70.93;97318.63;584977;242;65355;-71
2022/04/28 07:45:53;;;;;;;;;;;;;;;21.29;71.29;97325.05;585025;242;68878;-71
2022/04/28 07:48:22;;;;;;;;;;;;;;;21.29;71.43;97323.18;584905;242;66111;-70
2022/04/28 07:50:50;;;;;;;;;;;;;;;21.31;69.02;97324.77;584928;242;65869;-69
2022/04/28 07:53:20;;;;;;;;;;;;;;;21.30;69.21;97331.99;584700;242;48719;-69
2022/04/28 07:56:10;;;;;;;;;;;;;;;21.31;69.04;97333.62;584862;242;68416;-69
2022/04/28 07:58:17;;;;;;;;;;;;;;;21.32;69.10;97331.74;583861;242;63057;-68
2022/04/28 08:00:49;;;;;;;;;;;;;;;21.33;68.26;97336.02;584177;242;47164;-70
2022/04/28 08:03:18;;;;;;;;;;;;;;;21.34;68.93;97338.44;584907;242;68495;-69
2022/04/28 08:05:47;;;;;;;;;;;;;;;21.35;67.95;97341.91;584851;242;47268;-69
2022/04/28 08:08:15;;;;;;;;;;;;;;;21.36;70.41;97338.98;584988;242;68723;-70
2022/04/28 08:10:43;;;;;;;;;;;;;;;21.37;67.70;97343.28;584910;242;66239;-70
2022/04/28 08:13:11;;;;;;;;;;;;;;;21.38;66.84;97346.75;584956;242;65763;-69
2022/04/28 08:15:57;;;;;;;;;;;;;;;21.39;67.49;97346.50;584480;242;47468;-74
2022/04/28 08:18:26;;;;;;;;;;;;;;;21.41;67.80;97346.22;584856;242;46038;-72
2022/04/28 08:20:53;;;;;;;;;;;;;;;21.41;67.81;97348.89;584951;242;64977;-71
2022/04/28 08:23:21;;;;;;;;;;;;;;;21.42;67.83;97350.52;584958;242;68442;-72
2022/04/28 08:25:49;;;;;;;;;;;;;;;21.43;67.24;97347.55;584950;242;69445;-69
2022/04/28 08:28:17;;;;;;;;;;;;;;;21.44;67.97;97351.86;585008;242;65945;-69
2022/04/28 08:30:46;;;;;;;;;;;;;;;21.45;68.12;97347.30;584922;242;68888;-71
2022/04/28 08:33:14;;;;;;;;;;;;;;;21.46;68.29;97349.70;583975;239;68845;-70
2022/04/28 08:35:42;;;;;;;;;;;;;;;21.48;68.64;97354.80;582410;243;65357;-69
2022/04/28 08:38:10;;;;;;;;;;;;;;;21.48;68.20;97346.77;582389;243;66115;-69
2022/04/28 08:40:41;;;;;;;;;;;;;;;21.49;68.44;97353.71;582603;242;49483;-71
2022/04/28 08:43:12;;;;;;;;;;;;;;;21.50;68.47;97356.13;576959;243;66967;-70
2022/04/28 08:46:50;;;;;;;;;;;;;;;21.52;67.93;97353.17;582366;243;66410;-70
2022/04/28 08:48:14;;;;;;;;;;;;;;;21.53;67.65;97357.47;581924;243;49688;-67
2022/04/28 08:50:43;;;;;;;;;;;;;;;21.54;67.73;97348.37;581720;243;43869;-68
2022/04/28 08:53:12;;;;;;;;;;;;;;;21.56;67.81;97351.59;582413;242;45614;-67
2022/04/28 08:55:42;;;;;;;;;;;;;;;21.58;66.82;97353.98;582501;242;48814;-68
2022/04/28 08:58:10;;;;;;;;;;;;;;;21.59;67.52;97353.73;582442;243;66015;-67
2022/04/28 09:00:39;;;;;;;;;;;;;;;21.62;66.81;97352.39;582253;243;48045;-68
2022/04/28 09:03:11;;;;;;;;;;;;;;;21.63;67.31;97354.78;579078;243;49596;-67
2022/04/28 09:05:41;;;;;;;;;;;;;;;21.64;67.41;97350.27;581519;243;45282;-70
2022/04/28 09:08:27;;;;;;;;;;;;;;;21.66;66.84;97350.78;582550;243;43290;-69
2022/04/28 09:11:26;;;;;;;;;;;;;;;21.66;67.11;97348.93;582636;243;40323;-67
2022/04/28 09:14:11;;;;;;;;;;;;;;;21.69;67.15;97355.63;582520;243;47661;-69
2022/04/28 09:16:47;;;;;;;;;;;;;;;21.69;66.92;97352.95;582434;243;65559;-69
2022/04/28 09:19:17;;;;;;;;;;;;;;;21.70;67.02;97355.34;582391;243;65953;-69
2022/04/28 09:21:50;;;;;;;;;;;;;;;21.71;66.87;97348.11;582380;243;65307;-69
2022/04/28 09:24:15;;;;;;;;;;;;;;;21.73;67.04;97348.66;582195;243;69167;-69
2022/04/28 09:26:44;;;;;;;;;;;;;;;21.75;66.80;97351.88;582405;243;66477;-67
2022/04/28 09:29:13;;;;;;;;;;;;;;;21.76;66.82;97352.67;582459;243;66201;-73
2022/04/28 09:31:42;;;;;;;;;;;;;;;21.77;67.13;97347.06;582380;243;68836;-70
2022/04/28 09:34:30;;;;;;;;;;;;;;;21.79;66.72;97344.10;569586;246;50618;-73
2022/04/28 09:37:18;;;;;;;;;;;;;;;21.79;66.75;97346.78;557583;254;38983;-69
2022/04/28 09:42:39;;;;;;;;;;;;;;;21.82;67.17;97352.39;578463;245;68737;-69
2022/04/28 09:45:08;;;;;;;;;;;;;;;21.84;67.13;97344.11;578500;245;43968;-70
2022/04/28 09:47:38;;;;;;;;;;;;;;;21.84;66.80;97344.11;578456;245;47912;-70
2022/04/28 09:50:13;;;;;;;;;;;;;;;21.85;66.92;97351.05;578441;245;66207;-69
2022/04/28 09:52:43;;;;;;;;;;;;;;;21.86;67.21;97348.13;577464;245;47873;-71
2022/04/28 09:55:19;;;;;;;;;;;;;;;21.87;67.09;97348.92;578551;244;51654;-66
2022/04/28 09:57:58;;;;;;;;;;;;;;;21.88;67.15;97345.98;575287;245;50884;-66
2022/04/28 10:00:25;;;;;;;;;;;;;;;21.90;67.05;97343.02;578498;245;66164;-69
2022/04/28 10:02:56;;;;;;;;;;;;;;;21.92;66.66;97340.89;578645;244;40412;-66
2022/04/28 10:05:26;;;;;;;;;;;;;;;21.92;66.63;97346.24;578518;245;66501;-66
2022/04/28 10:07:57;;;;;;;;;;;;;;;21.94;66.91;97342.23;578086;245;46501;-66
2022/04/28 10:10:27;;;;;;;;;;;;;;;21.95;66.86;97346.50;578446;245;69128;-66
2022/04/28 10:12:56;;;;;;;;;;;;;;;21.97;66.75;97343.56;578382;245;65729;-66
2022/04/28 10:15:30;;;;;;;;;;;;;;;21.98;66.64;97345.16;578023;245;42679;-65
2022/04/28 10:18:06;;;;;;;;;;;;;;;22.00;66.79;97342.23;578514;245;66453;-69
2022/04/28 10:20:38;;;;;;;;;;;;;;;22.01;66.66;97341.14;578428;245;66535;-69
2022/04/28 10:23:07;;;;;;;;;;;;;;;22.02;67.10;97348.13;578457;245;64410;-68
2022/04/28 10:34:20;;;;;;;;;;;;;;;22.05;66.47;97334.20;576304;245;68517;-70
2022/04/28 10:36:55;;;;;;;;;;;;;;;22.07;66.62;97342.73;576299;246;67973;-71
2022/04/28 10:39:41;;;;;;;;;;;;;;;22.06;66.58;97335.80;576293;246;66402;-70
2022/04/28 10:42:22;;;;;;;;;;;;;;;22.07;66.53;97335.53;576322;246;65656;-71
2022/04/28 10:45:04;;;;;;;;;;;;;;;22.09;66.35;97329.89;575153;246;65955;-73
2022/04/28 10:47:30;;;;;;;;;;;;;;;22.10;66.49;97336.88;575920;246;63044;-73
2022/04/28 10:49:58;;;;;;;;;;;;;;;22.11;66.56;97339.26;576303;246;66464;-70
2022/04/28 10:52:29;;;;;;;;;;;;;;;22.13;66.61;97339.00;576325;246;66078;-71
2022/04/28 10:55:01;;;;;;;;;;;;;;;22.13;66.62;97333.66;576278;246;65595;-71
2022/04/28 10:57:30;;;;;;;;;;;;;;;22.14;66.66;97336.04;576276;246;68372;-70
2022/04/28 10:59:58;;;;;;;;;;;;;;;22.15;66.47;97334.98;576238;246;66109;-75
2022/04/28 11:02:28;;;;;;;;;;;;;;;22.15;66.24;97331.48;576188;246;65139;-74
2022/04/28 11:05:03;;;;;;;;;;;;;;;22.15;66.67;97332.31;576375;246;46817;-74
2022/04/28 11:07:31;;;;;;;;;;;;;;;22.17;66.60;97337.38;576143;246;68543;-75
2022/04/28 11:10:00;;;;;;;;;;;;;;;22.18;66.41;97339.03;576749;243;63289;-75
2022/04/28 11:12:35;;;;;;;;;;;;;;;22.21;66.23;97335.81;582370;243;68738;-75
2022/04/28 11:15:09;;;;;;;;;;;;;;;22.22;66.40;97328.58;582304;243;68290;-75
2022/04/28 11:17:38;;;;;;;;;;;;;;;22.22;66.24;97334.72;582297;243;63158;-73
2022/04/28 11:20:09;;;;;;;;;;;;;;;22.22;66.28;97332.05;582440;243;66190;-75
2022/04/28 11:22:36;;;;;;;;;;;;;;;22.24;66.36;97335.27;581970;243;68374;-75
2022/04/28 11:25:14;;;;;;;;;;;;;;;22.25;66.18;97339.53;581651;243;65521;-75
2022/04/28 11:27:43;;;;;;;;;;;;;;;22.19;66.16;97329.91;581618;243;46491;-75
2022/04/28 11:30:14;;;;;;;;;;;;;;;22.26;66.08;97338.48;581972;243;45290;-74
2022/04/28 11:32:51;;;;;;;;;;;;;;;22.28;66.22;97333.63;582875;241;63018;-74
2022/04/28 11:35:22;;;;;;;;;;;;;;;22.28;66.15;97340.87;586717;242;68422;-65
2022/04/28 11:37:56;;;;;;;;;;;;;;;22.28;66.38;97343.55;586602;242;68755;-65
2022/04/28 11:40:24;;;;;;;;;;;;;;;22.30;66.18;97336.84;586708;241;63304;-68
2022/04/28 11:42:57;;;;;;;;;;;;;;;22.29;66.14;97340.61;586619;242;66433;-64
2022/04/28 11:45:26;;;;;;;;;;;;;;;22.30;65.99;97336.05;586659;238;69253;-72
2022/04/28 11:47:59;;;;;;;;;;;;;;;22.30;66.33;97336.05;586732;242;65168;-73
2022/04/28 11:50:26;;;;;;;;;;;;;;;22.30;66.02;97331.49;586429;241;68573;-72
2022/04/28 11:53:04;;;;;;;;;;;;;;;22.32;66.10;97333.91;586792;241;66604;-73
2022/04/28 11:55:34;;;;;;;;;;;;;;;22.32;66.08;97332.03;586761;241;63305;-74
2022/04/28 11:58:01;;;;;;;;;;;;;;;22.33;66.10;97336.30;586734;241;66106;-73
2022/04/28 12:00:32;;;;;;;;;;;;;;;22.33;65.98;97335.50;586811;241;66684;-73
2022/04/28 12:02:59;;;;;;;;;;;;;;;22.33;65.90;97330.16;586717;239;66673;-73
2022/04/28 12:05:27;;;;;;;;;;;;;;;22.34;65.88;97332.57;586658;241;69052;-69
2022/04/28 12:07:55;;;;;;;;;;;;;;;22.33;65.91;97322.12;586801;241;66677;-69
2022/04/28 12:15:56;;;;;;;;;;;;;;;22.36;65.86;97325.05;586788;241;68692;-68
2022/04/28 12:21:16;;;;;;;;;;;;;;;22.36;65.58;97326.92;586851;241;49412;-70
2022/04/28 12:23:50;;;;;;;;;;;;;;;22.37;65.43;97328.52;586547;241;68591;-69
2022/04/28 12:26:24;;;;;;;;;;;;;;;22.36;65.64;97325.05;586280;241;65540;-70
2022/04/28 12:28:49;;;;;;;;;;;;;;;22.36;65.60;97319.69;585564;241;66115;-70
2022/04/28 12:31:18;;;;;;;;;;;;;;;22.38;65.36;97319.43;586339;241;68382;-74
2022/04/28 12:33:46;;;;;;;;;;;;;;;22.37;65.33;97326.67;586657;239;65393;-71
2022/04/28 12:36:14;;;;;;;;;;;;;;;22.38;65.59;97322.91;586655;241;68771;-71
2022/04/28 12:38:58;;;;;;;;;;;;;;;22.38;65.30;97322.91;586696;241;68789;-71
2022/04/28 12:41:25;;;;;;;;;;;;;;;22.38;65.17;97322.91;586506;241;65257;-70
2022/04/28 12:43:56;;;;;;;;;;;;;;;22.39;65.42;97313.78;586746;241;68875;-71
2022/04/28 12:46:28;;;;;;;;;;;;;;;22.39;65.45;97313.78;586772;241;68328;-74
2022/04/28 12:48:54;;;;;;;;;;;;;;;22.41;65.14;97315.41;586641;241;65319;-74
2022/04/28 12:51:23;;;;;;;;;;;;;;;22.41;65.15;97304.70;586752;241;68741;-73
2022/04/28 12:53:54;;;;;;;;;;;;;;;22.41;65.13;97304.70;586667;241;65947;-74
2022/04/28 12:56:31;;;;;;;;;;;;;;;22.42;65.22;97304.41;586742;241;65281;-71
2022/04/28 12:59:00;;;;;;;;;;;;;;;22.42;65.13;97311.64;586727;241;66684;-73
2022/04/28 13:01:28;;;;;;;;;;;;;;;22.42;65.09;97311.64;586563;241;68538;-73
2022/04/28 13:03:57;;;;;;;;;;;;;;;22.43;65.12;97318.63;586729;241;65174;-74
2022/04/28 13:06:25;;;;;;;;;;;;;;;22.43;64.95;97303.34;586704;241;68875;-74
2022/04/28 13:08:54;;;;;;;;;;;;;;;22.44;64.89;97304.94;586719;241;68703;-74
2022/04/28 13:11:25;;;;;;;;;;;;;;;22.44;65.47;97304.15;586828;241;65310;-74
2022/04/28 13:13:54;;;;;;;;;;;;;;;22.45;64.99;97311.89;586704;241;66367;-73
2022/04/28 13:16:21;;;;;;;;;;;;;;;22.46;64.91;97307.36;586678;241;68677;-74
2022/04/28 13:18:49;;;;;;;;;;;;;;;22.46;64.54;97312.72;586677;241;65444;-70
2022/04/28 13:21:17;;;;;;;;;;;;;;;22.44;64.26;97321.02;586741;241;69109;-69
2022/04/28 13:23:45;;;;;;;;;;;;;;;22.46;64.47;97310.04;586671;241;68651;-73
2022/04/28 13:26:13;;;;;;;;;;;;;;;22.49;64.68;97322.88;586784;241;63218;-71
2022/04/28 13:28:41;;;;;;;;;;;;;;;22.49;64.54;97312.97;586802;241;66652;-72
2022/04/28 13:31:08;;;;;;;;;;;;;;;22.51;64.49;97316.18;586658;241;66828;-76
2022/04/28 13:33:37;;;;;;;;;;;;;;;22.51;64.65;97310.03;586678;241;63033;-74
2022/04/28 13:36:05;;;;;;;;;;;;;;;22.52;64.46;97312.41;586698;241;68938;-74
2022/04/28 13:38:34;;;;;;;;;;;;;;;22.54;64.74;97309.47;586671;241;68763;-76
2022/04/28 13:41:02;;;;;;;;;;;;;;;22.55;64.80;97313.75;586695;241;65155;-75